sensor_id;sensor_type;location;lat;lon;timestamp;temperature;humidity
45803;DHT22;31504;51.716;9.184;2023-08-30T00:02:32;21.60;58.80
45803;DHT22;31504;51.716;9.184;2023-08-30T00:05:32;21.60;58.80
45803;DHT22;31504;51.716;9.184;2023-08-30T00:08:33;21.60;58.90
45803;DHT22;31504;51.716;9.184;2023-08-30T00:11:34;21.60;58.80
45803;DHT22;31504;51.716;9.184;2023-08-30T00:14:34;21.60;58.80
45803;DHT22;31504;51.716;9.184;2023-08-30T00:17:35;21.60;58.80
45803;DHT22;31504;51.716;9.184;2023-08-30T00:20:35;21.60;58.60
45803;DHT22;31504;51.716;9.184;2023-08-30T00:23:36;21.60;58.40
45803;DHT22;31504;51.716;9.184;2023-08-30T00:26:36;21.60;58.40
45803;DHT22;31504;51.716;9.184;2023-08-30T00:29:37;21.60;58.40
45803;DHT22;31504;51.716;9.184;2023-08-30T00:32:37;21.60;58.40
45803;DHT22;31504;51.716;9.184;2023-08-30T00:35:38;21.60;58.40
45803;DHT22;31504;51.716;9.184;2023-08-30T00:38:38;21.50;58.30
45803;DHT22;31504;51.716;9.184;2023-08-30T00:41:39;21.50;58.30
45803;DHT22;31504;51.716;9.184;2023-08-30T00:44:39;21.50;58.20
45803;DHT22;31504;51.716;9.184;2023-08-30T00:47:41;21.50;58.50
45803;DHT22;31504;51.716;9.184;2023-08-30T00:50:41;21.60;58.20
45803;DHT22;31504;51.716;9.184;2023-08-30T00:53:42;21.50;58.20
45803;DHT22;31504;51.716;9.184;2023-08-30T00:56:43;21.50;58.10
45803;DHT22;31504;51.716;9.184;2023-08-30T00:59:43;21.50;58.20
45803;DHT22;31504;51.716;9.184;2023-08-30T01:02:44;21.50;58.00
45803;DHT22;31504;51.716;9.184;2023-08-30T01:05:45;21.50;58.00
45803;DHT22;31504;51.716;9.184;2023-08-30T01:08:45;21.50;58.00
45803;DHT22;31504;51.716;9.184;2023-08-30T01:12:07;21.50;57.80
45803;DHT22;31504;51.716;9.184;2023-08-30T01:15:10;21.50;57.90
45803;DHT22;31504;51.716;9.184;2023-08-30T01:18:12;21.50;57.90
45803;DHT22;31504;51.716;9.184;2023-08-30T01:21:14;21.50;58.00
45803;DHT22;31504;51.716;9.184;2023-08-30T01:24:26;21.50;57.90
45803;DHT22;31504;51.716;9.184;2023-08-30T01:27:28;21.50;57.90
45803;DHT22;31504;51.716;9.184;2023-08-30T01:30:32;21.40;57.80
45803;DHT22;31504;51.716;9.184;2023-08-30T01:33:33;21.50;57.90
45803;DHT22;31504;51.716;9.184;2023-08-30T01:36:34;21.40;57.70
45803;DHT22;31504;51.716;9.184;2023-08-30T01:39:39;21.40;57.80
45803;DHT22;31504;51.716;9.184;2023-08-30T01:42:41;21.40;57.70
45803;DHT22;31504;51.716;9.184;2023-08-30T01:45:42;21.40;57.60
45803;DHT22;31504;51.716;9.184;2023-08-30T01:48:43;21.40;57.60
45803;DHT22;31504;51.716;9.184;2023-08-30T01:51:44;21.40;57.60
45803;DHT22;31504;51.716;9.184;2023-08-30T01:54:45;21.40;57.50
45803;DHT22;31504;51.716;9.184;2023-08-30T01:57:46;21.40;57.50
45803;DHT22;31504;51.716;9.184;2023-08-30T02:00:46;21.40;57.50
45803;DHT22;31504;51.716;9.184;2023-08-30T02:03:47;21.40;57.60
45803;DHT22;31504;51.716;9.184;2023-08-30T02:07:02;21.40;57.40
45803;DHT22;31504;51.716;9.184;2023-08-30T02:10:06;21.40;57.50
45803;DHT22;31504;51.716;9.184;2023-08-30T02:13:06;21.40;57.50
45803;DHT22;31504;51.716;9.184;2023-08-30T02:16:07;21.40;57.50
45803;DHT22;31504;51.716;9.184;2023-08-30T02:19:09;21.40;57.40
45803;DHT22;31504;51.716;9.184;2023-08-30T02:22:10;21.40;57.40
45803;DHT22;31504;51.716;9.184;2023-08-30T02:25:10;21.40;57.40
45803;DHT22;31504;51.716;9.184;2023-08-30T02:28:11;21.40;57.20
45803;DHT22;31504;51.716;9.184;2023-08-30T02:31:11;21.30;56.80
45803;DHT22;31504;51.716;9.184;2023-08-30T02:34:12;21.20;56.60
45803;DHT22;31504;51.716;9.184;2023-08-30T02:37:12;21.30;56.60
45803;DHT22;31504;51.716;9.184;2023-08-30T02:40:13;21.20;56.40
45803;DHT22;31504;51.716;9.184;2023-08-30T02:43:13;21.10;56.40
45803;DHT22;31504;51.716;9.184;2023-08-30T02:46:14;21.10;56.40
45803;DHT22;31504;51.716;9.184;2023-08-30T02:49:15;21.10;56.30
45803;DHT22;31504;51.716;9.184;2023-08-30T02:52:16;21.10;56.30
45803;DHT22;31504;51.716;9.184;2023-08-30T02:55:17;21.10;56.30
45803;DHT22;31504;51.716;9.184;2023-08-30T02:58:17;21.10;56.10
45803;DHT22;31504;51.716;9.184;2023-08-30T03:01:18;21.10;56.10
45803;DHT22;31504;51.716;9.184;2023-08-30T03:04:18;21.10;58.00
45803;DHT22;31504;51.716;9.184;2023-08-30T03:07:19;21.20;57.50
45803;DHT22;31504;51.716;9.184;2023-08-30T03:10:19;21.20;56.50
45803;DHT22;31504;51.716;9.184;2023-08-30T03:13:19;21.20;56.40
45803;DHT22;31504;51.716;9.184;2023-08-30T03:16:20;21.20;56.80
45803;DHT22;31504;51.716;9.184;2023-08-30T03:19:21;21.20;56.60
45803;DHT22;31504;51.716;9.184;2023-08-30T03:22:21;21.20;56.70
45803;DHT22;31504;51.716;9.184;2023-08-30T03:25:22;21.20;56.70
45803;DHT22;31504;51.716;9.184;2023-08-30T03:28:22;21.20;56.80
45803;DHT22;31504;51.716;9.184;2023-08-30T03:31:23;21.20;56.90
45803;DHT22;31504;51.716;9.184;2023-08-30T03:34:23;21.20;56.90
45803;DHT22;31504;51.716;9.184;2023-08-30T03:37:23;21.20;56.90
45803;DHT22;31504;51.716;9.184;2023-08-30T03:40:24;21.20;56.80
45803;DHT22;31504;51.716;9.184;2023-08-30T03:43:24;21.20;56.90
45803;DHT22;31504;51.716;9.184;2023-08-30T03:46:25;21.20;57.50
45803;DHT22;31504;51.716;9.184;2023-08-30T03:49:25;21.20;57.00
45803;DHT22;31504;51.716;9.184;2023-08-30T03:52:26;21.20;57.00
45803;DHT22;31504;51.716;9.184;2023-08-30T03:55:26;21.20;57.30
45803;DHT22;31504;51.716;9.184;2023-08-30T03:58:26;21.20;57.20
45803;DHT22;31504;51.716;9.184;2023-08-30T04:01:27;21.20;57.30
45803;DHT22;31504;51.716;9.184;2023-08-30T04:04:28;21.20;57.30
45803;DHT22;31504;51.716;9.184;2023-08-30T04:07:28;21.20;57.40
45803;DHT22;31504;51.716;9.184;2023-08-30T04:10:28;21.20;57.50
45803;DHT22;31504;51.716;9.184;2023-08-30T04:13:29;21.20;57.60
45803;DHT22;31504;51.716;9.184;2023-08-30T04:16:29;21.20;57.60
45803;DHT22;31504;51.716;9.184;2023-08-30T04:19:30;21.20;58.30
45803;DHT22;31504;51.716;9.184;2023-08-30T04:22:30;21.20;57.80
45803;DHT22;31504;51.716;9.184;2023-08-30T04:25:32;21.20;57.90
45803;DHT22;31504;51.716;9.184;2023-08-30T04:28:34;21.20;57.90
45803;DHT22;31504;51.716;9.184;2023-08-30T04:31:34;21.20;57.90
45803;DHT22;31504;51.716;9.184;2023-08-30T04:34:35;21.20;57.80
45803;DHT22;31504;51.716;9.184;2023-08-30T04:37:35;21.20;57.90
45803;DHT22;31504;51.716;9.184;2023-08-30T04:40:35;21.20;58.00
45803;DHT22;31504;51.716;9.184;2023-08-30T04:43:36;21.20;58.00
45803;DHT22;31504;51.716;9.184;2023-08-30T04:46:37;21.20;58.00
45803;DHT22;31504;51.716;9.184;2023-08-30T04:49:37;21.20;58.10
45803;DHT22;31504;51.716;9.184;2023-08-30T04:52:38;21.20;58.10
45803;DHT22;31504;51.716;9.184;2023-08-30T04:55:38;21.20;58.10
45803;DHT22;31504;51.716;9.184;2023-08-30T04:58:39;21.20;58.10
45803;DHT22;31504;51.716;9.184;2023-08-30T05:01:39;21.20;58.20
45803;DHT22;31504;51.716;9.184;2023-08-30T05:04:42;21.20;58.20
45803;DHT22;31504;51.716;9.184;2023-08-30T05:07:42;21.20;59.00
45803;DHT22;31504;51.716;9.184;2023-08-30T05:10:43;21.10;58.40
45803;DHT22;31504;51.716;9.184;2023-08-30T05:13:43;21.10;58.40
45803;DHT22;31504;51.716;9.184;2023-08-30T05:16:44;21.20;58.50
45803;DHT22;31504;51.716;9.184;2023-08-30T05:19:44;21.20;58.50
45803;DHT22;31504;51.716;9.184;2023-08-30T05:22:45;21.20;58.60
45803;DHT22;31504;51.716;9.184;2023-08-30T05:25:45;21.20;58.60
45803;DHT22;31504;51.716;9.184;2023-08-30T05:28:46;21.10;58.60
45803;DHT22;31504;51.716;9.184;2023-08-30T05:31:47;21.10;58.60
45803;DHT22;31504;51.716;9.184;2023-08-30T05:34:47;21.10;58.60
45803;DHT22;31504;51.716;9.184;2023-08-30T05:37:48;21.10;58.50
45803;DHT22;31504;51.716;9.184;2023-08-30T05:40:48;21.10;58.60
45803;DHT22;31504;51.716;9.184;2023-08-30T05:43:49;21.10;58.70
45803;DHT22;31504;51.716;9.184;2023-08-30T05:46:49;21.10;58.80
45803;DHT22;31504;51.716;9.184;2023-08-30T05:49:50;21.10;58.80
45803;DHT22;31504;51.716;9.184;2023-08-30T05:52:50;21.10;58.80
45803;DHT22;31504;51.716;9.184;2023-08-30T05:55:51;21.10;58.80
45803;DHT22;31504;51.716;9.184;2023-08-30T05:58:52;21.20;58.90
45803;DHT22;31504;51.716;9.184;2023-08-30T06:01:52;21.20;58.90
45803;DHT22;31504;51.716;9.184;2023-08-30T06:04:53;21.20;59.10
45803;DHT22;31504;51.716;9.184;2023-08-30T06:07:53;21.20;59.10
45803;DHT22;31504;51.716;9.184;2023-08-30T06:10:54;21.10;59.10
45803;DHT22;31504;51.716;9.184;2023-08-30T06:13:54;21.10;59.20
45803;DHT22;31504;51.716;9.184;2023-08-30T06:16:55;21.10;59.40
45803;DHT22;31504;51.716;9.184;2023-08-30T06:19:55;21.10;59.40
45803;DHT22;31504;51.716;9.184;2023-08-30T06:23:02;21.10;59.50
45803;DHT22;31504;51.716;9.184;2023-08-30T06:26:03;21.10;59.60
45803;DHT22;31504;51.716;9.184;2023-08-30T06:29:03;21.20;59.90
45803;DHT22;31504;51.716;9.184;2023-08-30T06:32:04;21.10;59.80
45803;DHT22;31504;51.716;9.184;2023-08-30T06:35:05;21.10;59.90
45803;DHT22;31504;51.716;9.184;2023-08-30T06:38:05;21.10;59.90
45803;DHT22;31504;51.716;9.184;2023-08-30T06:41:06;21.10;60.00
45803;DHT22;31504;51.716;9.184;2023-08-30T06:44:06;21.10;60.00
45803;DHT22;31504;51.716;9.184;2023-08-30T06:47:07;21.10;60.00
45803;DHT22;31504;51.716;9.184;2023-08-30T06:50:07;21.10;60.00
45803;DHT22;31504;51.716;9.184;2023-08-30T06:53:09;21.10;60.00
45803;DHT22;31504;51.716;9.184;2023-08-30T06:56:10;21.10;60.10
45803;DHT22;31504;51.716;9.184;2023-08-30T06:59:11;21.10;60.00
45803;DHT22;31504;51.716;9.184;2023-08-30T07:02:11;21.10;60.10
45803;DHT22;31504;51.716;9.184;2023-08-30T07:05:12;21.00;60.20
45803;DHT22;31504;51.716;9.184;2023-08-30T07:08:13;21.10;60.40
45803;DHT22;31504;51.716;9.184;2023-08-30T07:11:14;21.10;60.50
45803;DHT22;31504;51.716;9.184;2023-08-30T07:14:14;21.00;60.50
45803;DHT22;31504;51.716;9.184;2023-08-30T07:17:15;21.00;60.60
45803;DHT22;31504;51.716;9.184;2023-08-30T07:20:15;21.00;60.80
45803;DHT22;31504;51.716;9.184;2023-08-30T07:23:16;21.00;60.90
45803;DHT22;31504;51.716;9.184;2023-08-30T07:26:16;20.90;60.90
45803;DHT22;31504;51.716;9.184;2023-08-30T07:29:17;20.90;61.20
45803;DHT22;31504;51.716;9.184;2023-08-30T07:32:17;21.00;61.30
45803;DHT22;31504;51.716;9.184;2023-08-30T07:35:17;21.00;61.20
45803;DHT22;31504;51.716;9.184;2023-08-30T07:38:18;21.00;61.20
45803;DHT22;31504;51.716;9.184;2023-08-30T07:41:19;21.10;61.20
45803;DHT22;31504;51.716;9.184;2023-08-30T07:44:19;21.00;61.20
45803;DHT22;31504;51.716;9.184;2023-08-30T07:47:20;21.00;61.20
45803;DHT22;31504;51.716;9.184;2023-08-30T07:50:21;21.00;61.30
45803;DHT22;31504;51.716;9.184;2023-08-30T07:53:21;21.00;61.40
45803;DHT22;31504;51.716;9.184;2023-08-30T07:56:21;21.00;61.40
45803;DHT22;31504;51.716;9.184;2023-08-30T07:59:22;21.00;61.50
45803;DHT22;31504;51.716;9.184;2023-08-30T08:02:22;21.00;61.60
45803;DHT22;31504;51.716;9.184;2023-08-30T08:05:23;21.00;61.70
45803;DHT22;31504;51.716;9.184;2023-08-30T08:08:23;21.00;61.60
45803;DHT22;31504;51.716;9.184;2023-08-30T08:11:24;21.10;61.60
45803;DHT22;31504;51.716;9.184;2023-08-30T08:14:24;21.10;61.70
45803;DHT22;31504;51.716;9.184;2023-08-30T08:17:25;21.00;61.80
45803;DHT22;31504;51.716;9.184;2023-08-30T08:20:25;21.10;61.90
45803;DHT22;31504;51.716;9.184;2023-08-30T08:23:26;21.10;62.10
45803;DHT22;31504;51.716;9.184;2023-08-30T08:26:27;21.10;62.10
45803;DHT22;31504;51.716;9.184;2023-08-30T08:29:27;21.10;62.10
45803;DHT22;31504;51.716;9.184;2023-08-30T08:32:30;21.10;62.20
45803;DHT22;31504;51.716;9.184;2023-08-30T08:35:31;21.10;62.20
45803;DHT22;31504;51.716;9.184;2023-08-30T08:38:31;21.10;62.20
45803;DHT22;31504;51.716;9.184;2023-08-30T08:41:38;21.10;62.40
45803;DHT22;31504;51.716;9.184;2023-08-30T08:44:39;21.10;62.60
45803;DHT22;31504;51.716;9.184;2023-08-30T08:47:40;21.10;62.60
45803;DHT22;31504;51.716;9.184;2023-08-30T08:50:41;21.10;62.60
45803;DHT22;31504;51.716;9.184;2023-08-30T08:53:42;21.10;62.80
45803;DHT22;31504;51.716;9.184;2023-08-30T08:56:42;21.10;62.80
45803;DHT22;31504;51.716;9.184;2023-08-30T08:59:43;21.10;62.80
45803;DHT22;31504;51.716;9.184;2023-08-30T09:02:44;21.10;62.90
45803;DHT22;31504;51.716;9.184;2023-08-30T09:05:46;21.20;63.10
45803;DHT22;31504;51.716;9.184;2023-08-30T09:08:46;21.20;63.10
45803;DHT22;31504;51.716;9.184;2023-08-30T09:11:47;21.20;63.00
45803;DHT22;31504;51.716;9.184;2023-08-30T09:14:52;21.20;63.00
45803;DHT22;31504;51.716;9.184;2023-08-30T09:17:53;21.20;63.10
45803;DHT22;31504;51.716;9.184;2023-08-30T09:21:07;21.20;63.00
45803;DHT22;31504;51.716;9.184;2023-08-30T09:24:07;21.20;62.90
45803;DHT22;31504;51.716;9.184;2023-08-30T09:27:08;21.20;62.90
45803;DHT22;31504;51.716;9.184;2023-08-30T09:30:08;21.20;62.80
45803;DHT22;31504;51.716;9.184;2023-08-30T09:33:10;21.20;62.80
45803;DHT22;31504;51.716;9.184;2023-08-30T09:36:11;21.20;62.90
45803;DHT22;31504;51.716;9.184;2023-08-30T09:39:12;21.20;62.90
45803;DHT22;31504;51.716;9.184;2023-08-30T09:42:12;21.20;62.90
45803;DHT22;31504;51.716;9.184;2023-08-30T09:45:22;21.30;62.80
45803;DHT22;31504;51.716;9.184;2023-08-30T09:48:27;21.20;62.80
45803;DHT22;31504;51.716;9.184;2023-08-30T09:51:27;21.20;62.70
45803;DHT22;31504;51.716;9.184;2023-08-30T09:54:28;21.30;62.90
45803;DHT22;31504;51.716;9.184;2023-08-30T09:57:30;21.30;62.90
45803;DHT22;31504;51.716;9.184;2023-08-30T10:00:31;21.30;62.90
45803;DHT22;31504;51.716;9.184;2023-08-30T10:03:31;21.30;62.90
45803;DHT22;31504;51.716;9.184;2023-08-30T10:06:32;21.30;62.90
45803;DHT22;31504;51.716;9.184;2023-08-30T10:09:33;21.30;63.60
45803;DHT22;31504;51.716;9.184;2023-08-30T10:12:33;21.30;63.50
45803;DHT22;31504;51.716;9.184;2023-08-30T10:15:35;21.30;63.20
45803;DHT22;31504;51.716;9.184;2023-08-30T10:18:37;21.30;63.10
45803;DHT22;31504;51.716;9.184;2023-08-30T10:21:38;21.40;63.20
45803;DHT22;31504;51.716;9.184;2023-08-30T10:24:40;21.40;63.00
45803;DHT22;31504;51.716;9.184;2023-08-30T10:27:41;21.40;63.10
45803;DHT22;31504;51.716;9.184;2023-08-30T10:30:43;21.40;63.00
45803;DHT22;31504;51.716;9.184;2023-08-30T10:33:48;21.40;63.00
45803;DHT22;31504;51.716;9.184;2023-08-30T10:37:01;21.40;63.00
45803;DHT22;31504;51.716;9.184;2023-08-30T10:40:02;21.30;63.00
45803;DHT22;31504;51.716;9.184;2023-08-30T10:43:06;21.30;63.00
45803;DHT22;31504;51.716;9.184;2023-08-30T10:46:07;21.40;63.00
45803;DHT22;31504;51.716;9.184;2023-08-30T10:49:14;21.40;62.90
45803;DHT22;31504;51.716;9.184;2023-08-30T10:52:14;21.40;62.80
45803;DHT22;31504;51.716;9.184;2023-08-30T10:55:15;21.40;62.80
45803;DHT22;31504;51.716;9.184;2023-08-30T10:58:16;21.40;62.70
45803;DHT22;31504;51.716;9.184;2023-08-30T11:01:16;21.40;62.70
45803;DHT22;31504;51.716;9.184;2023-08-30T11:04:17;21.50;62.60
45803;DHT22;31504;51.716;9.184;2023-08-30T11:07:18;21.50;62.50
45803;DHT22;31504;51.716;9.184;2023-08-30T11:10:19;21.50;62.40
45803;DHT22;31504;51.716;9.184;2023-08-30T11:13:19;21.40;62.30
45803;DHT22;31504;51.716;9.184;2023-08-30T11:16:22;21.50;62.10
45803;DHT22;31504;51.716;9.184;2023-08-30T11:19:23;21.50;62.00
45803;DHT22;31504;51.716;9.184;2023-08-30T11:22:23;21.50;61.90
45803;DHT22;31504;51.716;9.184;2023-08-30T11:25:24;21.40;61.70
45803;DHT22;31504;51.716;9.184;2023-08-30T11:28:25;21.40;61.50
45803;DHT22;31504;51.716;9.184;2023-08-30T11:31:26;21.40;61.50
45803;DHT22;31504;51.716;9.184;2023-08-30T11:34:27;21.40;61.50
45803;DHT22;31504;51.716;9.184;2023-08-30T11:37:28;21.40;61.30
45803;DHT22;31504;51.716;9.184;2023-08-30T11:40:28;21.40;61.40
45803;DHT22;31504;51.716;9.184;2023-08-30T11:43:29;21.30;61.40
45803;DHT22;31504;51.716;9.184;2023-08-30T11:46:29;21.30;61.30
45803;DHT22;31504;51.716;9.184;2023-08-30T11:49:30;21.40;61.40
45803;DHT22;31504;51.716;9.184;2023-08-30T11:52:30;21.40;61.30
45803;DHT22;31504;51.716;9.184;2023-08-30T11:55:31;21.40;61.50
45803;DHT22;31504;51.716;9.184;2023-08-30T11:58:32;21.40;61.40
45803;DHT22;31504;51.716;9.184;2023-08-30T12:01:33;21.40;61.50
45803;DHT22;31504;51.716;9.184;2023-08-30T12:04:41;21.50;61.50
45803;DHT22;31504;51.716;9.184;2023-08-30T12:07:42;21.50;61.50
45803;DHT22;31504;51.716;9.184;2023-08-30T12:10:42;21.50;61.40
45803;DHT22;31504;51.716;9.184;2023-08-30T12:13:43;21.50;61.40
45803;DHT22;31504;51.716;9.184;2023-08-30T12:16:43;21.50;61.20
45803;DHT22;31504;51.716;9.184;2023-08-30T12:19:46;21.40;61.00
45803;DHT22;31504;51.716;9.184;2023-08-30T12:22:46;21.40;61.10
45803;DHT22;31504;51.716;9.184;2023-08-30T12:28:58;21.50;61.00
45803;DHT22;31504;51.716;9.184;2023-08-30T12:31:58;21.50;61.00
45803;DHT22;31504;51.716;9.184;2023-08-30T12:34:59;21.50;60.80
45803;DHT22;31504;51.716;9.184;2023-08-30T12:37:59;21.50;60.70
45803;DHT22;31504;51.716;9.184;2023-08-30T12:41:00;21.60;60.50
45803;DHT22;31504;51.716;9.184;2023-08-30T12:44:00;21.60;60.20
45803;DHT22;31504;51.716;9.184;2023-08-30T12:47:02;21.60;60.00
45803;DHT22;31504;51.716;9.184;2023-08-30T12:50:02;21.60;59.60
45803;DHT22;31504;51.716;9.184;2023-08-30T12:53:06;21.60;59.50
45803;DHT22;31504;51.716;9.184;2023-08-30T12:56:06;21.60;60.00
45803;DHT22;31504;51.716;9.184;2023-08-30T12:59:07;21.60;58.80
45803;DHT22;31504;51.716;9.184;2023-08-30T13:02:07;21.50;58.20
45803;DHT22;31504;51.716;9.184;2023-08-30T13:05:08;21.50;58.50
45803;DHT22;31504;51.716;9.184;2023-08-30T13:08:09;21.50;58.40
45803;DHT22;31504;51.716;9.184;2023-08-30T13:11:09;21.50;58.50
45803;DHT22;31504;51.716;9.184;2023-08-30T13:14:10;21.40;58.60
45803;DHT22;31504;51.716;9.184;2023-08-30T13:17:10;21.30;58.70
45803;DHT22;31504;51.716;9.184;2023-08-30T13:20:11;21.40;58.50
45803;DHT22;31504;51.716;9.184;2023-08-30T13:23:11;21.40;58.50
45803;DHT22;31504;51.716;9.184;2023-08-30T13:26:11;21.40;58.50
45803;DHT22;31504;51.716;9.184;2023-08-30T13:29:12;21.40;58.60
45803;DHT22;31504;51.716;9.184;2023-08-30T13:32:12;21.40;58.60
45803;DHT22;31504;51.716;9.184;2023-08-30T13:35:13;21.40;58.50
45803;DHT22;31504;51.716;9.184;2023-08-30T13:38:13;21.50;58.60
45803;DHT22;31504;51.716;9.184;2023-08-30T13:41:14;21.40;58.30
45803;DHT22;31504;51.716;9.184;2023-08-30T13:44:14;21.40;58.20
45803;DHT22;31504;51.716;9.184;2023-08-30T13:47:15;21.30;57.90
45803;DHT22;31504;51.716;9.184;2023-08-30T13:50:17;21.30;58.00
45803;DHT22;31504;51.716;9.184;2023-08-30T13:53:17;21.30;58.10
45803;DHT22;31504;51.716;9.184;2023-08-30T13:56:19;21.40;58.50
45803;DHT22;31504;51.716;9.184;2023-08-30T13:59:19;21.40;58.40
45803;DHT22;31504;51.716;9.184;2023-08-30T14:02:20;21.40;58.20
45803;DHT22;31504;51.716;9.184;2023-08-30T14:05:20;21.30;58.60
45803;DHT22;31504;51.716;9.184;2023-08-30T14:08:21;21.20;61.20
45803;DHT22;31504;51.716;9.184;2023-08-30T14:11:21;21.20;62.80
45803;DHT22;31504;51.716;9.184;2023-08-30T14:14:22;21.20;63.30
45803;DHT22;31504;51.716;9.184;2023-08-30T14:17:22;21.30;63.70
45803;DHT22;31504;51.716;9.184;2023-08-30T14:20:22;21.30;64.10
45803;DHT22;31504;51.716;9.184;2023-08-30T14:23:26;21.30;64.80
45803;DHT22;31504;51.716;9.184;2023-08-30T14:26:27;21.30;65.10
45803;DHT22;31504;51.716;9.184;2023-08-30T14:29:28;21.40;65.20
45803;DHT22;31504;51.716;9.184;2023-08-30T14:32:28;21.30;66.10
45803;DHT22;31504;51.716;9.184;2023-08-30T14:35:29;21.40;65.60
45803;DHT22;31504;51.716;9.184;2023-08-30T14:38:31;21.40;66.10
45803;DHT22;31504;51.716;9.184;2023-08-30T14:41:32;21.40;66.20
45803;DHT22;31504;51.716;9.184;2023-08-30T14:44:33;21.30;66.20
45803;DHT22;31504;51.716;9.184;2023-08-30T14:47:33;21.30;65.90
45803;DHT22;31504;51.716;9.184;2023-08-30T14:50:34;21.30;66.10
45803;DHT22;31504;51.716;9.184;2023-08-30T14:53:34;21.30;66.20
45803;DHT22;31504;51.716;9.184;2023-08-30T14:56:35;21.30;65.70
45803;DHT22;31504;51.716;9.184;2023-08-30T14:59:36;21.30;65.70
45803;DHT22;31504;51.716;9.184;2023-08-30T15:02:36;21.30;65.70
45803;DHT22;31504;51.716;9.184;2023-08-30T15:05:37;21.30;65.50
45803;DHT22;31504;51.716;9.184;2023-08-30T15:08:40;21.30;65.50
45803;DHT22;31504;51.716;9.184;2023-08-30T15:11:43;21.30;65.60
45803;DHT22;31504;51.716;9.184;2023-08-30T15:14:44;21.30;65.50
45803;DHT22;31504;51.716;9.184;2023-08-30T15:17:44;21.30;65.80
45803;DHT22;31504;51.716;9.184;2023-08-30T15:20:45;21.20;65.60
45803;DHT22;31504;51.716;9.184;2023-08-30T15:23:47;21.20;65.80
45803;DHT22;31504;51.716;9.184;2023-08-30T15:26:47;21.20;66.10
45803;DHT22;31504;51.716;9.184;2023-08-30T15:29:48;21.20;66.40
45803;DHT22;31504;51.716;9.184;2023-08-30T15:32:55;21.20;66.40
45803;DHT22;31504;51.716;9.184;2023-08-30T15:35:57;21.20;66.60
45803;DHT22;31504;51.716;9.184;2023-08-30T15:38:57;21.20;66.60
45803;DHT22;31504;51.716;9.184;2023-08-30T15:41:58;21.20;67.30
45803;DHT22;31504;51.716;9.184;2023-08-30T15:44:59;21.20;67.40
45803;DHT22;31504;51.716;9.184;2023-08-30T15:47:59;21.20;67.80
45803;DHT22;31504;51.716;9.184;2023-08-30T15:51:00;21.20;68.20
45803;DHT22;31504;51.716;9.184;2023-08-30T15:54:00;21.20;68.10
45803;DHT22;31504;51.716;9.184;2023-08-30T15:57:01;21.20;68.40
45803;DHT22;31504;51.716;9.184;2023-08-30T16:00:02;21.30;68.80
45803;DHT22;31504;51.716;9.184;2023-08-30T16:03:03;21.20;68.80
45803;DHT22;31504;51.716;9.184;2023-08-30T16:06:04;21.20;68.70
45803;DHT22;31504;51.716;9.184;2023-08-30T16:09:04;21.20;68.90
45803;DHT22;31504;51.716;9.184;2023-08-30T16:12:05;21.20;69.10
45803;DHT22;31504;51.716;9.184;2023-08-30T16:15:05;21.10;69.60
45803;DHT22;31504;51.716;9.184;2023-08-30T16:18:06;21.10;69.60
45803;DHT22;31504;51.716;9.184;2023-08-30T16:21:08;21.20;69.80
45803;DHT22;31504;51.716;9.184;2023-08-30T16:24:09;21.10;69.80
45803;DHT22;31504;51.716;9.184;2023-08-30T16:27:09;21.10;70.20
45803;DHT22;31504;51.716;9.184;2023-08-30T16:30:10;21.00;69.40
45803;DHT22;31504;51.716;9.184;2023-08-30T16:33:11;20.90;69.80
45803;DHT22;31504;51.716;9.184;2023-08-30T16:36:11;21.00;68.90
45803;DHT22;31504;51.716;9.184;2023-08-30T16:39:12;21.00;68.80
45803;DHT22;31504;51.716;9.184;2023-08-30T16:42:12;21.00;68.50
45803;DHT22;31504;51.716;9.184;2023-08-30T16:45:12;21.00;68.40
45803;DHT22;31504;51.716;9.184;2023-08-30T16:48:13;21.00;68.30
45803;DHT22;31504;51.716;9.184;2023-08-30T16:51:13;21.00;68.30
45803;DHT22;31504;51.716;9.184;2023-08-30T16:54:15;20.90;68.50
45803;DHT22;31504;51.716;9.184;2023-08-30T16:57:15;20.90;68.10
45803;DHT22;31504;51.716;9.184;2023-08-30T17:00:16;20.90;67.90
45803;DHT22;31504;51.716;9.184;2023-08-30T17:03:18;20.90;67.80
45803;DHT22;31504;51.716;9.184;2023-08-30T17:06:19;20.90;67.90
45803;DHT22;31504;51.716;9.184;2023-08-30T17:09:19;21.00;67.80
45803;DHT22;31504;51.716;9.184;2023-08-30T17:12:20;20.90;67.80
45803;DHT22;31504;51.716;9.184;2023-08-30T17:15:20;20.90;67.90
45803;DHT22;31504;51.716;9.184;2023-08-30T17:18:21;20.90;67.90
45803;DHT22;31504;51.716;9.184;2023-08-30T17:21:21;20.90;67.90
45803;DHT22;31504;51.716;9.184;2023-08-30T17:24:22;20.90;68.20
45803;DHT22;31504;51.716;9.184;2023-08-30T17:27:22;20.90;68.20
45803;DHT22;31504;51.716;9.184;2023-08-30T17:30:22;20.80;68.20
45803;DHT22;31504;51.716;9.184;2023-08-30T17:33:23;20.90;68.20
45803;DHT22;31504;51.716;9.184;2023-08-30T17:36:23;20.90;68.20
45803;DHT22;31504;51.716;9.184;2023-08-30T17:39:24;20.90;68.30
45803;DHT22;31504;51.716;9.184;2023-08-30T17:42:25;20.90;68.50
45803;DHT22;31504;51.716;9.184;2023-08-30T17:45:28;20.90;68.90
45803;DHT22;31504;51.716;9.184;2023-08-30T17:48:30;20.90;69.50
45803;DHT22;31504;51.716;9.184;2023-08-30T17:51:30;20.90;68.90
45803;DHT22;31504;51.716;9.184;2023-08-30T17:54:31;20.90;69.00
45803;DHT22;31504;51.716;9.184;2023-08-30T17:57:33;20.90;69.00
45803;DHT22;31504;51.716;9.184;2023-08-30T18:00:35;20.90;68.80
45803;DHT22;31504;51.716;9.184;2023-08-30T18:03:35;21.00;68.50
45803;DHT22;31504;51.716;9.184;2023-08-30T18:06:36;21.10;68.30
45803;DHT22;31504;51.716;9.184;2023-08-30T18:09:36;21.10;68.30
45803;DHT22;31504;51.716;9.184;2023-08-30T18:12:37;21.20;68.10
45803;DHT22;31504;51.716;9.184;2023-08-30T18:15:38;21.20;68.10
45803;DHT22;31504;51.716;9.184;2023-08-30T18:18:41;21.20;68.00
45803;DHT22;31504;51.716;9.184;2023-08-30T18:21:42;21.20;67.90
45803;DHT22;31504;51.716;9.184;2023-08-30T18:24:44;21.20;67.90
45803;DHT22;31504;51.716;9.184;2023-08-30T18:27:46;21.20;67.90
45803;DHT22;31504;51.716;9.184;2023-08-30T18:30:46;21.20;68.10
45803;DHT22;31504;51.716;9.184;2023-08-30T18:33:47;21.20;67.90
45803;DHT22;31504;51.716;9.184;2023-08-30T18:36:47;21.30;67.90
45803;DHT22;31504;51.716;9.184;2023-08-30T18:39:47;21.30;67.80
45803;DHT22;31504;51.716;9.184;2023-08-30T18:42:48;21.30;67.70
45803;DHT22;31504;51.716;9.184;2023-08-30T18:45:49;21.30;67.60
45803;DHT22;31504;51.716;9.184;2023-08-30T18:48:49;21.30;67.60
45803;DHT22;31504;51.716;9.184;2023-08-30T18:51:51;21.30;67.70
45803;DHT22;31504;51.716;9.184;2023-08-30T18:54:52;21.30;67.60
45803;DHT22;31504;51.716;9.184;2023-08-30T18:57:52;21.30;67.40
45803;DHT22;31504;51.716;9.184;2023-08-30T19:00:53;21.30;67.30
45803;DHT22;31504;51.716;9.184;2023-08-30T19:03:53;21.30;67.30
45803;DHT22;31504;51.716;9.184;2023-08-30T19:06:53;21.30;67.30